createdAt,value
2017-10-04T00:01:26.971Z,67.80
2017-10-04T00:03:54.430Z,68.00
2017-10-04T00:06:21.871Z,68.20
2017-10-04T00:08:49.313Z,68.30
2017-10-04T00:11:17.541Z,69.10
2017-10-04T00:13:44.991Z,69.00
2017-10-04T00:16:12.430Z,69.10
2017-10-04T00:18:40.091Z,69.00
2017-10-04T00:21:07.550Z,68.90
2017-10-04T00:23:35.041Z,69.10
2017-10-04T00:26:02.480Z,68.90
2017-10-04T00:28:29.938Z,69.60
2017-10-04T00:30:57.388Z,69.40
2017-10-04T00:33:25.595Z,69.90
2017-10-04T00:35:53.044Z,69.90
2017-10-04T00:38:21.260Z,69.80
2017-10-04T00:40:48.700Z,69.80
2017-10-04T00:43:16.144Z,69.80
2017-10-04T00:45:43.593Z,70.40
2017-10-04T00:48:11.032Z,70.90
2017-10-04T00:50:38.491Z,70.90
2017-10-04T00:53:05.940Z,70.60
2017-10-04T00:55:33.380Z,70.70
2017-10-04T00:58:00.815Z,70.50
2017-10-04T01:00:28.255Z,70.20
2017-10-04T01:02:55.703Z,70.30
2017-10-04T01:05:23.140Z,71.20
2017-10-04T01:07:50.583Z,71.00
2017-10-04T01:10:18.019Z,70.90
2017-10-04T01:12:45.459Z,70.80
2017-10-04T01:15:12.908Z,70.50
2017-10-04T01:17:40.338Z,70.30
2017-10-04T01:20:07.789Z,70.70
2017-10-04T01:22:35.232Z,70.80
2017-10-04T01:25:02.675Z,71.20
2017-10-04T01:27:30.111Z,71.00
2017-10-04T01:29:57.554Z,71.10
2017-10-04T01:32:25.012Z,71.00
2017-10-04T01:34:52.455Z,70.60
2017-10-04T01:37:19.887Z,70.40
2017-10-04T01:39:47.344Z,70.50
2017-10-04T01:42:14.783Z,70.30
2017-10-04T01:44:42.249Z,70.70
2017-10-04T01:47:09.702Z,70.30
2017-10-04T01:49:37.125Z,69.90
2017-10-04T01:52:04.581Z,70.00
2017-10-04T01:54:32.020Z,70.30
2017-10-04T01:56:59.472Z,70.50
2017-10-04T01:59:26.915Z,70.20
2017-10-04T02:01:54.360Z,70.20
2017-10-04T02:04:21.795Z,70.60
2017-10-04T02:06:49.240Z,70.80
2017-10-04T02:09:16.705Z,71.00
2017-10-04T02:11:44.156Z,70.80
2017-10-04T02:14:12.365Z,71.00
2017-10-04T02:16:39.824Z,70.90
2017-10-04T02:19:07.267Z,71.00
2017-10-04T02:21:34.714Z,70.70
2017-10-04T02:24:02.167Z,71.20
2017-10-04T02:26:29.629Z,71.10
2017-10-04T02:28:57.084Z,71.10
2017-10-04T02:31:24.517Z,71.10
2017-10-04T02:33:52.720Z,71.30
2017-10-04T02:36:20.163Z,71.40
2017-10-04T02:38:47.607Z,71.50
2017-10-04T02:41:15.053Z,71.00
2017-10-04T02:43:42.492Z,71.00
2017-10-04T02:46:09.960Z,71.20
2017-10-04T02:48:38.163Z,71.40
2017-10-04T02:51:06.361Z,71.40
2017-10-04T02:53:33.811Z,71.30
2017-10-04T02:56:01.261Z,71.10
2017-10-04T02:58:30.212Z,70.60
2017-10-04T03:00:57.656Z,70.70
2017-10-04T03:03:25.096Z,70.70
2017-10-04T03:05:52.531Z,71.00
2017-10-04T03:08:19.981Z,70.60
2017-10-04T03:10:47.419Z,70.50
2017-10-04T03:13:14.892Z,70.60
2017-10-04T03:15:42.329Z,70.80
2017-10-04T03:18:09.772Z,71.60
2017-10-04T03:20:37.202Z,71.90
2017-10-04T03:23:04.648Z,72.60
2017-10-04T03:25:32.080Z,72.80
2017-10-04T03:27:59.525Z,72.40
2017-10-04T03:30:26.967Z,72.90
2017-10-04T03:32:54.411Z,73.00
2017-10-04T03:35:21.849Z,73.80
2017-10-04T03:37:49.288Z,72.90
2017-10-04T03:40:16.732Z,72.90
2017-10-04T03:42:44.167Z,72.90
2017-10-04T03:45:11.618Z,73.10
2017-10-04T03:47:39.059Z,72.80
2017-10-04T03:50:06.496Z,72.90
2017-10-04T03:52:33.941Z,72.80
2017-10-04T03:55:01.375Z,72.40
2017-10-04T03:57:28.808Z,72.10
2017-10-04T03:59:56.240Z,72.10
2017-10-04T04:02:23.670Z,71.90
2017-10-04T04:04:51.922Z,71.80
2017-10-04T04:07:19.372Z,71.70
2017-10-04T04:09:46.791Z,71.80
2017-10-04T04:12:14.219Z,71.60
2017-10-04T04:14:41.671Z,71.70
2017-10-04T04:17:09.181Z,71.60
2017-10-04T04:19:36.630Z,71.40
2017-10-04T04:22:04.125Z,71.30
2017-10-04T04:24:32.340Z,71.70
2017-10-04T04:26:59.781Z,71.70
2017-10-04T04:29:27.226Z,71.40
2017-10-04T04:31:54.689Z,71.20
2017-10-04T04:34:22.136Z,71.20
2017-10-04T04:36:49.563Z,71.10
2017-10-04T04:39:17.006Z,71.20
2017-10-04T04:41:44.456Z,71.70
2017-10-04T04:44:11.897Z,71.60
2017-10-04T04:46:39.331Z,71.90
2017-10-04T04:49:06.774Z,71.50
2017-10-04T04:51:34.296Z,71.20
2017-10-04T04:54:01.710Z,71.30
2017-10-04T04:56:29.145Z,71.90
2017-10-04T04:58:56.652Z,71.80
2017-10-04T05:01:24.091Z,71.90
2017-10-04T05:03:51.528Z,72.00
2017-10-04T05:06:18.971Z,72.30
2017-10-04T05:08:46.432Z,72.20
2017-10-04T05:11:13.872Z,72.40
2017-10-04T05:13:41.304Z,72.70
2017-10-04T05:16:08.752Z,72.40
2017-10-04T05:18:36.180Z,72.20
2017-10-04T05:21:03.619Z,72.30
2017-10-04T05:23:31.066Z,72.50
2017-10-04T05:25:58.501Z,72.40
2017-10-04T05:28:25.939Z,72.00
2017-10-04T05:30:53.388Z,71.90
2017-10-04T05:33:20.816Z,71.90
2017-10-04T05:35:48.284Z,71.90
2017-10-04T05:38:15.724Z,71.80
2017-10-04T05:40:43.177Z,71.90
2017-10-04T05:43:10.618Z,71.80
2017-10-04T05:45:38.044Z,71.80
2017-10-04T05:48:05.489Z,72.20
2017-10-04T05:50:32.952Z,72.20
2017-10-04T05:53:00.396Z,71.90
2017-10-04T05:55:28.601Z,72.00
2017-10-04T05:57:56.047Z,72.10
2017-10-04T06:00:23.494Z,72.50
2017-10-04T06:02:50.944Z,72.00
2017-10-04T06:05:18.367Z,71.80
2017-10-04T06:07:45.849Z,71.40
2017-10-04T06:10:13.413Z,71.30
2017-10-04T06:12:40.840Z,71.10
2017-10-04T06:15:08.299Z,71.00
2017-10-04T06:17:35.731Z,71.50
2017-10-04T06:20:03.176Z,72.20
2017-10-04T06:22:30.634Z,71.90
2017-10-04T06:24:58.067Z,71.80
2017-10-04T06:27:25.491Z,71.70
2017-10-04T06:29:52.934Z,72.20
2017-10-04T06:32:20.377Z,71.40
2017-10-04T06:34:47.831Z,71.30
2017-10-04T06:37:15.252Z,71.10
2017-10-04T06:39:42.727Z,70.80
2017-10-04T06:42:10.156Z,70.70
2017-10-04T06:44:37.594Z,70.20
2017-10-04T06:47:05.031Z,70.30
2017-10-04T06:49:32.477Z,69.70
2017-10-04T06:51:59.948Z,68.30
2017-10-04T06:54:27.407Z,67.80
2017-10-04T06:56:54.849Z,67.10
2017-10-04T06:59:22.308Z,65.60
2017-10-04T07:01:50.520Z,64.20
2017-10-04T07:04:17.976Z,64.20
2017-10-04T07:06:45.465Z,61.70
2017-10-04T07:09:13.656Z,59.80
2017-10-04T07:11:41.116Z,59.90
2017-10-04T07:14:08.591Z,59.40
2017-10-04T07:16:36.040Z,58.60
2017-10-04T07:19:04.253Z,57.70
2017-10-04T07:21:31.689Z,57.20
2017-10-04T07:23:59.147Z,56.90
2017-10-04T07:26:26.593Z,55.90
2017-10-04T07:28:54.103Z,55.80
2017-10-04T07:31:21.548Z,56.90
2017-10-04T07:33:48.997Z,57.10
2017-10-04T07:36:16.498Z,57.40
2017-10-04T07:38:43.975Z,58.20
2017-10-04T07:41:11.418Z,57.00
2017-10-04T07:43:38.847Z,56.10
2017-10-04T07:46:06.279Z,55.90
2017-10-04T07:48:34.487Z,55.30
2017-10-04T07:51:01.927Z,55.30
2017-10-04T07:53:29.368Z,55.60
2017-10-04T07:55:56.803Z,55.30
2017-10-04T07:58:24.251Z,54.60
2017-10-04T08:00:51.699Z,54.70
2017-10-04T08:03:19.142Z,54.30
2017-10-04T08:05:46.593Z,54.00
2017-10-04T08:08:14.055Z,54.60
2017-10-04T08:10:41.489Z,54.30
2017-10-04T08:13:08.933Z,54.30
2017-10-04T08:15:36.377Z,54.10
2017-10-04T08:18:03.804Z,53.90
2017-10-04T08:20:31.249Z,53.20
2017-10-04T08:22:58.703Z,53.20
2017-10-04T08:25:26.150Z,54.00
2017-10-04T08:27:53.607Z,54.40
2017-10-04T08:30:21.044Z,53.90
2017-10-04T08:32:48.479Z,53.60
2017-10-04T08:35:15.913Z,52.80
2017-10-04T08:37:43.355Z,53.10
2017-10-04T08:40:10.788Z,53.40
2017-10-04T08:42:38.223Z,53.60
2017-10-04T08:45:06.429Z,54.70
2017-10-04T08:50:31.353Z,53.30
2017-10-04T08:52:58.799Z,53.70
2017-10-04T08:55:27.001Z,53.00
2017-10-04T08:57:54.443Z,53.00
2017-10-04T09:00:21.953Z,52.60
2017-10-04T09:02:50.167Z,52.20
2017-10-04T09:05:29.412Z,52.20
2017-10-04T09:07:56.856Z,51.30
2017-10-04T09:10:24.287Z,51.20
2017-10-04T09:12:51.732Z,52.20
2017-10-04T09:15:19.164Z,51.20
2017-10-04T09:17:46.604Z,50.90
2017-10-04T09:20:14.066Z,49.30
2017-10-04T09:22:41.500Z,49.30
2017-10-04T09:25:08.973Z,49.50
2017-10-04T09:27:36.393Z,48.00
2017-10-04T09:30:03.829Z,49.20
2017-10-04T09:32:31.280Z,48.00
2017-10-04T09:34:58.709Z,47.30
2017-10-04T09:37:26.152Z,46.20
2017-10-04T09:39:53.609Z,45.00
2017-10-04T09:42:21.044Z,44.60
2017-10-04T09:44:48.471Z,44.90
2017-10-04T09:47:15.935Z,44.40
2017-10-04T09:49:43.376Z,43.50
2017-10-04T09:52:10.811Z,43.30
2017-10-04T09:54:38.261Z,43.60
2017-10-04T09:57:05.707Z,42.60
2017-10-04T09:59:33.155Z,43.20
2017-10-04T10:02:00.596Z,43.30
2017-10-04T10:04:28.027Z,42.90
2017-10-04T10:06:55.476Z,43.60
2017-10-04T10:09:22.917Z,43.50
2017-10-04T10:11:50.382Z,42.80
2017-10-04T10:14:17.808Z,43.80
2017-10-04T10:16:45.253Z,43.80
2017-10-04T10:19:12.695Z,43.50
2017-10-04T10:21:40.429Z,43.10
2017-10-04T10:24:07.866Z,43.50
2017-10-04T10:26:35.313Z,42.80
2017-10-04T10:29:02.741Z,41.30
2017-10-04T10:31:30.180Z,41.30
2017-10-04T10:33:57.640Z,39.90
2017-10-04T10:36:25.082Z,40.10
2017-10-04T10:38:52.524Z,40.80
2017-10-04T10:41:19.953Z,40.90
2017-10-04T10:43:47.395Z,41.00
2017-10-04T10:46:14.844Z,41.20
2017-10-04T10:48:42.303Z,40.60
2017-10-04T10:51:09.736Z,40.90
2017-10-04T10:53:37.182Z,41.40
2017-10-04T10:56:04.612Z,42.30
2017-10-04T10:58:32.055Z,42.30
2017-10-04T11:00:59.485Z,42.10
2017-10-04T11:03:27.700Z,40.50
2017-10-04T11:05:55.132Z,40.50
2017-10-04T11:08:22.588Z,40.40
2017-10-04T11:10:50.029Z,40.30
2017-10-04T11:13:17.485Z,41.00
2017-10-04T11:15:44.924Z,40.40
2017-10-04T11:18:12.352Z,40.30
2017-10-04T11:20:39.892Z,41.50
2017-10-04T11:23:07.317Z,42.40
2017-10-04T11:25:34.776Z,41.80
2017-10-04T11:28:02.235Z,41.20
2017-10-04T11:30:29.860Z,40.10
2017-10-04T11:32:57.316Z,40.80
2017-10-04T11:35:24.754Z,41.80
2017-10-04T11:37:52.189Z,42.20
2017-10-04T11:40:19.698Z,40.90
2017-10-04T11:42:47.888Z,42.10
2017-10-04T11:45:15.339Z,42.60
2017-10-04T11:47:42.784Z,40.80
2017-10-04T11:50:10.226Z,41.20
2017-10-04T11:52:38.420Z,41.80
2017-10-04T11:55:05.868Z,41.80
2017-10-04T11:57:33.309Z,41.50
2017-10-04T12:00:00.752Z,41.90
2017-10-04T12:02:28.210Z,41.80
2017-10-04T12:04:55.640Z,42.20
2017-10-04T12:07:23.077Z,41.30
2017-10-04T12:09:50.534Z,42.00
2017-10-04T12:12:17.987Z,42.00
2017-10-04T12:14:45.502Z,42.00
2017-10-04T12:17:12.941Z,42.00
2017-10-04T12:19:40.371Z,42.20
2017-10-04T12:22:07.824Z,43.30
2017-10-04T12:24:35.273Z,42.40
2017-10-04T12:27:02.727Z,42.40
2017-10-04T12:29:30.175Z,42.60
2017-10-04T12:31:57.605Z,42.70
2017-10-04T12:34:25.059Z,42.80
2017-10-04T12:36:52.502Z,43.00
2017-10-04T12:39:19.930Z,43.30
2017-10-04T12:41:47.364Z,43.60
2017-10-04T12:44:14.824Z,43.40
2017-10-04T12:46:42.264Z,43.20
2017-10-04T12:49:10.471Z,43.80
2017-10-04T12:51:37.943Z,43.80
2017-10-04T12:54:05.384Z,45.10
2017-10-04T12:56:32.826Z,44.30
2017-10-04T12:59:00.255Z,44.80
2017-10-04T13:01:28.460Z,45.30
2017-10-04T13:03:55.957Z,45.30
2017-10-04T13:06:24.164Z,45.70
2017-10-04T13:08:51.610Z,45.70
2017-10-04T13:11:19.851Z,46.60
2017-10-04T13:13:47.365Z,46.00
2017-10-04T13:16:14.796Z,46.10
2017-10-04T13:18:43.009Z,46.30
2017-10-04T13:21:10.440Z,46.20
2017-10-04T13:23:37.921Z,46.60
2017-10-04T13:26:05.363Z,46.50
2017-10-04T13:28:32.809Z,46.50
2017-10-04T13:31:00.255Z,46.50
2017-10-04T13:33:27.698Z,46.60
2017-10-04T13:35:55.142Z,46.90
2017-10-04T13:38:22.988Z,46.90
2017-10-04T13:40:50.430Z,46.50
2017-10-04T13:43:17.867Z,46.70
2017-10-04T13:45:45.309Z,46.60
2017-10-04T13:48:12.873Z,46.60
2017-10-04T13:50:40.344Z,47.10
2017-10-04T13:53:08.538Z,47.20
2017-10-04T13:55:36.752Z,47.10
2017-10-04T13:58:04.185Z,47.10
2017-10-04T14:00:31.620Z,47.00
2017-10-04T14:02:59.072Z,46.90
2017-10-04T14:05:26.513Z,46.90
2017-10-04T14:07:53.941Z,46.70
2017-10-04T14:10:21.411Z,46.60
2017-10-04T14:12:48.882Z,46.80
2017-10-04T14:15:16.312Z,46.80
2017-10-04T14:17:43.755Z,46.90
2017-10-04T14:20:11.183Z,46.80
2017-10-04T14:22:38.624Z,47.40
2017-10-04T14:25:06.093Z,47.90
2017-10-04T14:27:33.524Z,48.10
2017-10-04T14:30:00.967Z,50.20
2017-10-04T14:32:28.421Z,48.10
2017-10-04T14:34:55.852Z,47.70
2017-10-04T14:37:23.298Z,48.70
2017-10-04T14:39:50.730Z,48.40
2017-10-04T14:42:18.198Z,48.60
2017-10-04T14:44:45.660Z,49.10
2017-10-04T14:47:13.876Z,48.90
2017-10-04T14:49:41.320Z,48.90
2017-10-04T14:52:08.786Z,49.10
2017-10-04T14:54:36.248Z,48.60
2017-10-04T14:57:03.692Z,48.70
2017-10-04T14:59:31.124Z,49.00
2017-10-04T15:01:59.334Z,50.20
2017-10-04T15:04:26.796Z,49.60
2017-10-04T15:06:54.233Z,49.80
2017-10-04T15:09:21.667Z,50.10
2017-10-04T15:11:49.110Z,50.30
2017-10-04T15:14:17.338Z,49.90
2017-10-04T15:16:44.776Z,49.90
2017-10-04T15:19:12.223Z,50.10
2017-10-04T15:21:39.665Z,50.20
2017-10-04T15:24:07.116Z,50.70
2017-10-04T15:26:35.345Z,51.30
2017-10-04T15:29:02.800Z,51.30
2017-10-04T15:31:30.229Z,51.00
2017-10-04T15:33:57.664Z,51.40
2017-10-04T15:36:25.105Z,51.70
2017-10-04T15:38:52.584Z,52.00
2017-10-04T15:41:20.802Z,52.10
2017-10-04T15:43:48.236Z,52.00
2017-10-04T15:46:15.663Z,52.60
2017-10-04T15:48:43.124Z,53.20
2017-10-04T15:51:10.568Z,52.80
2017-10-04T15:53:38.014Z,53.10
2017-10-04T15:56:06.207Z,53.40
2017-10-04T15:58:33.661Z,53.40
2017-10-04T16:01:01.096Z,53.50
2017-10-04T16:03:28.568Z,53.80
2017-10-04T16:05:56.007Z,54.00
2017-10-04T16:08:23.468Z,53.90
2017-10-04T16:10:51.717Z,54.70
2017-10-04T16:13:19.176Z,54.70
2017-10-04T16:15:47.371Z,55.00
2017-10-04T16:18:14.815Z,54.90
2017-10-04T16:20:42.274Z,55.10
2017-10-04T16:23:09.722Z,55.60
2017-10-04T16:25:37.170Z,55.70
2017-10-04T16:28:04.591Z,56.30
2017-10-04T16:30:32.036Z,56.60
2017-10-04T16:32:59.465Z,56.60
2017-10-04T16:35:27.032Z,56.90
2017-10-04T16:37:54.462Z,57.10
2017-10-04T16:40:21.904Z,57.20
2017-10-04T16:42:49.331Z,57.20
2017-10-04T16:45:16.768Z,57.20
2017-10-04T16:47:44.196Z,57.90
2017-10-04T16:50:12.404Z,57.60
2017-10-04T16:52:39.845Z,57.60
2017-10-04T16:55:07.278Z,58.00
2017-10-04T16:57:34.720Z,58.40
2017-10-04T17:00:02.172Z,58.20
2017-10-04T17:02:29.608Z,58.60
2017-10-04T17:04:57.060Z,58.50
2017-10-04T17:07:24.515Z,58.60
2017-10-04T17:09:52.740Z,58.10
2017-10-04T17:12:20.213Z,58.10
2017-10-04T17:14:47.767Z,57.80
2017-10-04T17:17:15.980Z,57.90
2017-10-04T17:19:43.429Z,57.90
2017-10-04T17:22:10.872Z,57.20
2017-10-04T17:24:38.318Z,57.90
2017-10-04T17:27:05.748Z,56.80
2017-10-04T17:29:33.194Z,56.90
2017-10-04T17:32:00.636Z,57.30
2017-10-04T17:34:28.070Z,57.50
2017-10-04T17:36:55.513Z,57.00
2017-10-04T17:39:22.939Z,56.20
2017-10-04T17:41:50.396Z,56.30
2017-10-04T17:44:17.828Z,57.20
2017-10-04T17:46:45.268Z,56.90
2017-10-04T17:49:12.705Z,56.40
2017-10-04T17:51:40.152Z,56.20
2017-10-04T17:54:07.587Z,56.10
2017-10-04T17:56:35.024Z,56.20
2017-10-04T17:59:02.466Z,56.80
2017-10-04T18:01:29.930Z,56.60
2017-10-04T18:03:57.356Z,56.70
2017-10-04T18:06:24.795Z,57.00
2017-10-04T18:08:52.293Z,57.30
2017-10-04T18:11:19.749Z,57.60
2017-10-04T18:13:47.176Z,57.30
2017-10-04T18:16:14.641Z,57.80
2017-10-04T18:18:42.859Z,57.50
2017-10-04T18:21:10.297Z,58.00
2017-10-04T18:23:37.724Z,57.40
2017-10-04T18:26:05.172Z,57.80
2017-10-04T18:28:32.604Z,58.10
2017-10-04T18:31:00.035Z,58.10
2017-10-04T18:33:27.502Z,58.10
2017-10-04T18:35:54.933Z,58.20
2017-10-04T18:38:22.406Z,58.30
2017-10-04T18:40:49.875Z,58.50
2017-10-04T18:43:17.344Z,58.70
2017-10-04T18:45:44.796Z,59.00
2017-10-04T18:48:12.669Z,59.20
2017-10-04T18:50:40.121Z,59.50
2017-10-04T18:53:07.565Z,59.70
2017-10-04T18:55:35.052Z,59.20
2017-10-04T18:58:02.492Z,59.20
2017-10-04T19:00:29.936Z,59.50
2017-10-04T19:02:58.137Z,59.30
2017-10-04T19:05:25.597Z,59.30
2017-10-04T19:07:53.030Z,59.20
2017-10-04T19:10:20.480Z,59.50
2017-10-04T19:12:47.957Z,59.50
2017-10-04T19:15:15.391Z,60.30
2017-10-04T19:17:42.841Z,59.50
2017-10-04T19:20:10.281Z,59.90
2017-10-04T19:22:37.713Z,59.60
2017-10-04T19:25:06.597Z,59.90
2017-10-04T19:27:34.856Z,59.80
2017-10-04T19:30:03.057Z,60.00
2017-10-04T19:32:30.488Z,60.00
2017-10-04T19:34:57.935Z,60.10
2017-10-04T19:37:25.382Z,60.20
2017-10-04T19:39:52.824Z,61.10
2017-10-04T19:42:20.271Z,60.70
2017-10-04T19:44:47.716Z,60.70
2017-10-04T19:47:15.155Z,60.80
2017-10-04T19:49:42.584Z,61.10
2017-10-04T19:52:10.021Z,61.10
2017-10-04T19:54:38.232Z,61.50
2017-10-04T19:57:05.682Z,61.50
2017-10-04T19:59:33.890Z,61.90
2017-10-04T20:02:02.216Z,61.20
2017-10-04T20:04:29.660Z,61.20
2017-10-04T20:06:57.100Z,61.10
2017-10-04T20:09:24.545Z,61.70
2017-10-04T20:11:51.985Z,61.50
2017-10-04T20:14:19.433Z,61.30
2017-10-04T20:16:46.996Z,61.30
2017-10-04T20:19:14.432Z,60.90
2017-10-04T20:21:41.866Z,61.10
2017-10-04T20:24:09.304Z,61.20
2017-10-04T20:26:36.747Z,61.40
2017-10-04T20:29:04.193Z,60.90
2017-10-04T20:31:31.640Z,61.10
2017-10-04T20:33:59.106Z,61.30
2017-10-04T20:36:27.322Z,61.90
2017-10-04T20:38:54.747Z,61.90
2017-10-04T20:41:22.196Z,61.20
2017-10-04T20:43:49.624Z,60.70
2017-10-04T20:46:17.096Z,60.40
2017-10-04T20:48:44.537Z,60.40
2017-10-04T20:51:11.971Z,60.40
2017-10-04T20:53:39.417Z,60.70
2017-10-04T20:56:06.873Z,60.80
2017-10-04T20:58:34.304Z,60.70
2017-10-04T21:01:01.754Z,60.90
2017-10-04T21:03:29.192Z,61.00
2017-10-04T21:05:56.627Z,60.80
2017-10-04T21:08:24.072Z,60.90
2017-10-04T21:10:51.507Z,60.60
2017-10-04T21:13:18.942Z,60.80
2017-10-04T21:15:47.156Z,61.10
2017-10-04T21:18:14.588Z,61.10
2017-10-04T21:20:42.031Z,61.20
2017-10-04T21:23:09.474Z,60.80
2017-10-04T21:25:36.943Z,60.70
2017-10-04T21:28:04.384Z,60.50
2017-10-04T21:30:31.843Z,60.20
2017-10-04T21:32:59.264Z,60.60
2017-10-04T21:35:26.696Z,60.50
2017-10-04T21:37:54.144Z,60.40
2017-10-04T21:40:21.578Z,60.60
2017-10-04T21:42:49.030Z,60.30
2017-10-04T21:45:17.460Z,59.90
2017-10-04T21:47:44.900Z,60.00
2017-10-04T21:50:12.371Z,59.50
2017-10-04T21:52:39.800Z,59.50
2017-10-04T21:55:07.239Z,59.50
2017-10-04T21:57:34.676Z,59.40
2017-10-04T22:00:02.119Z,59.50
2017-10-04T22:02:29.554Z,59.50
2017-10-04T22:04:57.756Z,59.50
2017-10-04T22:07:25.969Z,59.50
2017-10-04T22:09:53.416Z,59.40
2017-10-04T22:12:20.863Z,59.90
2017-10-04T22:14:48.319Z,59.50
2017-10-04T22:17:15.732Z,59.50
2017-10-04T22:19:43.173Z,59.20
2017-10-04T22:22:10.608Z,59.50
2017-10-04T22:24:38.039Z,59.50
2017-10-04T22:27:05.489Z,59.40
2017-10-04T22:29:32.996Z,60.60
2017-10-04T22:32:00.513Z,60.00
2017-10-04T22:34:27.985Z,59.50
2017-10-04T22:36:56.183Z,59.50
2017-10-04T22:39:23.659Z,59.50
2017-10-04T22:41:51.109Z,59.40
2017-10-04T22:44:18.536Z,59.30
2017-10-04T22:46:45.997Z,59.30
2017-10-04T22:49:13.433Z,59.40
2017-10-04T22:51:40.864Z,59.40
2017-10-04T22:54:08.292Z,59.50
2017-10-04T22:56:35.734Z,59.70
2017-10-04T22:59:03.169Z,59.60
2017-10-04T23:01:30.616Z,59.70
2017-10-04T23:03:58.051Z,59.50
2017-10-04T23:06:25.493Z,59.00
2017-10-04T23:08:53.000Z,59.40
2017-10-04T23:11:21.217Z,59.20
2017-10-04T23:13:48.649Z,59.30
2017-10-04T23:16:16.092Z,59.30
2017-10-04T23:18:43.532Z,59.40
2017-10-04T23:21:10.987Z,59.10
2017-10-04T23:23:38.415Z,58.90
2017-10-04T23:26:05.858Z,59.20
2017-10-04T23:28:33.290Z,59.10
2017-10-04T23:31:00.746Z,59.40
2017-10-04T23:33:28.180Z,59.20
2017-10-04T23:35:55.630Z,58.80
2017-10-04T23:38:23.071Z,59.00
2017-10-04T23:40:50.639Z,59.00
2017-10-04T23:43:18.092Z,59.10
2017-10-04T23:45:45.524Z,59.00
2017-10-04T23:48:12.956Z,59.20
2017-10-04T23:50:40.401Z,59.00
2017-10-04T23:53:08.618Z,59.40
2017-10-04T23:55:36.819Z,58.80
2017-10-04T23:58:04.265Z,59.50
